sensor_id;sensor_type;location;lat;lon;timestamp;pressure;altitude;pressure_sealevel;temperature;humidity
62789;BME280;48826;42.016;21.454;2022-12-01T00:00:45;98165.28;;;25.97;28.93
62789;BME280;48826;42.016;21.454;2022-12-01T00:03:11;98162.38;;;25.93;28.09
62789;BME280;48826;42.016;21.454;2022-12-01T00:05:36;98165.56;;;25.95;28.55
62789;BME280;48826;42.016;21.454;2022-12-01T00:08:02;98167.44;;;25.95;28.32
62789;BME280;48826;42.016;21.454;2022-12-01T00:10:29;98165.06;;;25.93;28.24
62789;BME280;48826;42.016;21.454;2022-12-01T00:12:57;98155.97;;;25.94;28.21
62789;BME280;48826;42.016;21.454;2022-12-01T00:15:32;98138.66;;;25.78;27.98
62789;BME280;48826;42.016;21.454;2022-12-01T00:17:59;98161.41;;;25.89;27.71
62789;BME280;48826;42.016;21.454;2022-12-01T00:20:25;98156.63;;;25.86;28.01
62789;BME280;48826;42.016;21.454;2022-12-01T00:22:51;98171.78;;;25.91;27.79
62789;BME280;48826;42.016;21.454;2022-12-01T00:25:18;98162.19;;;25.90;28.48
62789;BME280;48826;42.016;21.454;2022-12-01T00:27:48;98160.31;;;25.90;28.60
62789;BME280;48826;42.016;21.454;2022-12-01T00:30:14;98170.19;;;25.90;28.12
62789;BME280;48826;42.016;21.454;2022-12-01T00:32:39;98165.16;;;25.88;28.49
62789;BME280;48826;42.016;21.454;2022-12-01T00:35:05;98159.31;;;25.86;28.14
62789;BME280;48826;42.016;21.454;2022-12-01T00:37:32;98167.91;;;25.83;28.49
62789;BME280;48826;42.016;21.454;2022-12-01T00:39:58;98161.09;;;25.77;28.42
62789;BME280;48826;42.016;21.454;2022-12-01T00:42:24;98155.53;;;25.74;28.18
62789;BME280;48826;42.016;21.454;2022-12-01T00:44:50;98160.06;;;25.73;27.97
62789;BME280;48826;42.016;21.454;2022-12-01T00:47:15;98152.06;;;25.73;27.84
62789;BME280;48826;42.016;21.454;2022-12-01T00:49:41;98158.69;;;25.76;28.59
62789;BME280;48826;42.016;21.454;2022-12-01T00:52:07;98138.88;;;25.63;27.86
62789;BME280;48826;42.016;21.454;2022-12-01T00:54:33;98155.75;;;25.77;28.45
62789;BME280;48826;42.016;21.454;2022-12-01T00:56:59;98152.56;;;25.75;28.04
62789;BME280;48826;42.016;21.454;2022-12-01T00:59:25;98154.16;;;25.76;27.74
62789;BME280;48826;42.016;21.454;2022-12-01T01:01:50;98120.88;;;25.55;28.31
62789;BME280;48826;42.016;21.454;2022-12-01T01:04:17;98147.22;;;25.75;28.61
62789;BME280;48826;42.016;21.454;2022-12-01T01:06:43;98149.41;;;25.73;27.93
62789;BME280;48826;42.016;21.454;2022-12-01T01:09:09;98145.47;;;25.71;28.55
62789;BME280;48826;42.016;21.454;2022-12-01T01:11:35;98152.16;;;25.68;28.22
62789;BME280;48826;42.016;21.454;2022-12-01T01:14:01;98147.38;;;25.65;27.92
62789;BME280;48826;42.016;21.454;2022-12-01T01:16:27;98142.03;;;25.65;27.85
62789;BME280;48826;42.016;21.454;2022-12-01T01:18:52;98135.72;;;25.61;28.00
62789;BME280;48826;42.016;21.454;2022-12-01T01:21:20;98138.88;;;25.63;27.72
62789;BME280;48826;42.016;21.454;2022-12-01T01:23:47;98137.78;;;25.64;27.93
62789;BME280;48826;42.016;21.454;2022-12-01T01:28:45;98134.63;;;25.62;28.10
62789;BME280;48826;42.016;21.454;2022-12-01T01:31:13;98137.59;;;25.60;28.69
62789;BME280;48826;42.016;21.454;2022-12-01T01:33:39;98131.78;;;25.58;27.92
62789;BME280;48826;42.016;21.454;2022-12-01T01:36:05;98141.13;;;25.56;28.57
62789;BME280;48826;42.016;21.454;2022-12-01T01:38:31;98126.81;;;25.52;28.42
62789;BME280;48826;42.016;21.454;2022-12-01T01:40:57;98136.88;;;25.55;28.42
62789;BME280;48826;42.016;21.454;2022-12-01T01:43:42;98136.31;;;25.58;28.75
62789;BME280;48826;42.016;21.454;2022-12-01T01:46:26;98128.59;;;25.56;28.63
62789;BME280;48826;42.016;21.454;2022-12-01T01:49:06;98121.47;;;25.52;27.94
62789;BME280;48826;42.016;21.454;2022-12-01T01:51:39;98102.69;;;25.43;28.58
62789;BME280;48826;42.016;21.454;2022-12-01T01:54:12;98128.31;;;25.58;28.06
62789;BME280;48826;42.016;21.454;2022-12-01T01:56:46;98133.72;;;25.53;28.72
62789;BME280;48826;42.016;21.454;2022-12-01T01:59:16;98124.81;;;25.44;27.90
62789;BME280;48826;42.016;21.454;2022-12-01T02:01:44;98129.53;;;25.47;28.27
62789;BME280;48826;42.016;21.454;2022-12-01T02:04:13;98134.59;;;25.48;28.71
62789;BME280;48826;42.016;21.454;2022-12-01T02:06:39;98126.31;;;25.50;28.72
62789;BME280;48826;42.016;21.454;2022-12-01T02:09:05;98129.78;;;25.50;28.77
62789;BME280;48826;42.016;21.454;2022-12-01T02:16:56;98109.13;;;25.56;28.69
62789;BME280;48826;42.016;21.454;2022-12-01T02:22:39;98121.66;;;25.55;28.69
62789;BME280;48826;42.016;21.454;2022-12-01T02:31:27;98112.38;;;25.53;28.72
62789;BME280;48826;42.016;21.454;2022-12-01T02:34:07;98110.81;;;25.52;28.92
62789;BME280;48826;42.016;21.454;2022-12-01T02:36:49;98110.22;;;25.55;28.20
62789;BME280;48826;42.016;21.454;2022-12-01T02:39:40;98120.09;;;25.54;27.93
62789;BME280;48826;42.016;21.454;2022-12-01T02:42:25;98096.69;;;25.51;28.56
62789;BME280;48826;42.016;21.454;2022-12-01T02:45:21;98088.88;;;25.55;27.92
62789;BME280;48826;42.016;21.454;2022-12-01T02:47:49;98095.78;;;25.56;28.28
62789;BME280;48826;42.016;21.454;2022-12-01T02:50:18;98088.09;;;25.54;27.99
62789;BME280;48826;42.016;21.454;2022-12-01T02:52:44;98082.16;;;25.57;27.83
62789;BME280;48826;42.016;21.454;2022-12-01T02:55:11;98086.69;;;25.57;28.55
62789;BME280;48826;42.016;21.454;2022-12-01T02:57:37;98076.16;;;25.52;27.97
62789;BME280;48826;42.016;21.454;2022-12-01T03:00:03;98084.03;;;25.57;28.32
62789;BME280;48826;42.016;21.454;2022-12-01T03:10:55;98083.06;;;25.53;28.73
62789;BME280;48826;42.016;21.454;2022-12-01T03:14:07;98074.06;;;25.49;28.73
62789;BME280;48826;42.016;21.454;2022-12-01T03:16:40;98073.47;;;25.52;28.11
62789;BME280;48826;42.016;21.454;2022-12-01T03:22:00;98074.25;;;25.52;28.69
62789;BME280;48826;42.016;21.454;2022-12-01T03:24:29;98071.66;;;25.47;28.21
62789;BME280;48826;42.016;21.454;2022-12-01T03:26:59;98074.56;;;25.51;28.06
62789;BME280;48826;42.016;21.454;2022-12-01T03:29:33;98076.44;;;25.50;28.56
62789;BME280;48826;42.016;21.454;2022-12-01T03:32:08;98071.66;;;25.47;28.16
62789;BME280;48826;42.016;21.454;2022-12-01T03:34:48;98075.66;;;25.50;28.16
62789;BME280;48826;42.016;21.454;2022-12-01T03:37:26;98067.72;;;25.45;28.00
62789;BME280;48826;42.016;21.454;2022-12-01T03:39:56;98078.31;;;25.50;28.51
62789;BME280;48826;42.016;21.454;2022-12-01T03:42:27;98076.75;;;25.49;28.19
62789;BME280;48826;42.016;21.454;2022-12-01T03:44:58;98075.13;;;25.48;28.51
62789;BME280;48826;42.016;21.454;2022-12-01T03:47:29;98076.81;;;25.44;28.23
62789;BME280;48826;42.016;21.454;2022-12-01T03:49:57;98079.78;;;25.42;27.83
62789;BME280;48826;42.016;21.454;2022-12-01T03:58:02;98082.75;;;25.40;28.00
62789;BME280;48826;42.016;21.454;2022-12-01T04:00:30;98081.16;;;25.39;28.37
62789;BME280;48826;42.016;21.454;2022-12-01T04:02:57;98074.81;;;25.35;28.27
62789;BME280;48826;42.016;21.454;2022-12-01T04:05:23;98075.59;;;25.36;28.33
62789;BME280;48826;42.016;21.454;2022-12-01T04:07:49;98080.63;;;25.37;27.62
62789;BME280;48826;42.016;21.454;2022-12-01T04:10:15;98079.66;;;25.33;28.20
62789;BME280;48826;42.016;21.454;2022-12-01T04:12:40;98081.53;;;25.33;27.50
62789;BME280;48826;42.016;21.454;2022-12-01T04:15:08;98067.91;;;25.34;28.28
62789;BME280;48826;42.016;21.454;2022-12-01T04:17:35;98076.19;;;25.33;28.42
62789;BME280;48826;42.016;21.454;2022-12-01T04:20:02;98080.53;;;25.29;28.08
62789;BME280;48826;42.016;21.454;2022-12-01T04:22:28;98081.81;;;25.31;27.49
62789;BME280;48826;42.016;21.454;2022-12-01T04:24:54;98080.72;;;25.32;28.11
62789;BME280;48826;42.016;21.454;2022-12-01T04:27:19;98085.78;;;25.34;27.64
62789;BME280;48826;42.016;21.454;2022-12-01T04:29:45;98084.69;;;25.35;27.54
62789;BME280;48826;42.016;21.454;2022-12-01T04:32:11;98077.97;;;25.37;27.33
62789;BME280;48826;42.016;21.454;2022-12-01T04:34:37;98077.41;;;25.40;28.10
62789;BME280;48826;42.016;21.454;2022-12-01T04:37:04;98079.78;;;25.42;27.75
62789;BME280;48826;42.016;21.454;2022-12-01T04:39:30;98074.94;;;25.44;27.73
62789;BME280;48826;42.016;21.454;2022-12-01T04:41:56;98075.72;;;25.45;27.35
62789;BME280;48826;42.016;21.454;2022-12-01T04:44:21;98079.97;;;25.46;27.37
62789;BME280;48826;42.016;21.454;2022-12-01T04:46:47;98075.72;;;25.45;27.22
62789;BME280;48826;42.016;21.454;2022-12-01T04:49:12;98069.09;;;25.42;28.03
62789;BME280;48826;42.016;21.454;2022-12-01T04:51:37;98070.69;;;25.43;27.81
62789;BME280;48826;42.016;21.454;2022-12-01T04:54:03;98072.06;;;25.40;27.45
62789;BME280;48826;42.016;21.454;2022-12-01T04:56:30;98078.97;;;25.42;27.04
62789;BME280;48826;42.016;21.454;2022-12-01T04:58:57;98055.16;;;25.31;27.72
62789;BME280;48826;42.016;21.454;2022-12-01T05:01:24;98076.81;;;25.44;27.50
62789;BME280;48826;42.016;21.454;2022-12-01T05:03:49;98074.63;;;25.46;27.79
62789;BME280;48826;42.016;21.454;2022-12-01T05:06:24;98076.22;;;25.47;27.47
62789;BME280;48826;42.016;21.454;2022-12-01T05:08:52;98074.25;;;25.38;27.53
62789;BME280;48826;42.016;21.454;2022-12-01T05:11:18;98079.56;;;25.38;27.12
62789;BME280;48826;42.016;21.454;2022-12-01T05:13:45;98077.19;;;25.37;27.35
62789;BME280;48826;42.016;21.454;2022-12-01T05:16:22;98077.97;;;25.37;27.96
62789;BME280;48826;42.016;21.454;2022-12-01T05:18:49;98072.63;;;25.37;27.33
62789;BME280;48826;42.016;21.454;2022-12-01T05:21:15;98075.31;;;25.37;27.56
62789;BME280;48826;42.016;21.454;2022-12-01T05:23:41;98074.81;;;25.35;27.98
62789;BME280;48826;42.016;21.454;2022-12-01T05:26:08;98079.56;;;25.38;27.93
62789;BME280;48826;42.016;21.454;2022-12-01T05:28:34;98088.63;;;25.37;28.11
62789;BME280;48826;42.016;21.454;2022-12-01T05:31:00;98079.56;;;25.38;27.50
62789;BME280;48826;42.016;21.454;2022-12-01T05:33:26;98082.16;;;25.44;27.26
62789;BME280;48826;42.016;21.454;2022-12-01T05:35:52;98086.69;;;25.43;27.94
62789;BME280;48826;42.016;21.454;2022-12-01T05:38:18;98075.81;;;25.39;28.03
62789;BME280;48826;42.016;21.454;2022-12-01T05:40:54;98082.94;;;25.44;27.76
62789;BME280;48826;42.016;21.454;2022-12-01T05:43:21;98080.56;;;25.43;27.91
62789;BME280;48826;42.016;21.454;2022-12-01T05:45:47;98077.97;;;25.37;27.19
62789;BME280;48826;42.016;21.454;2022-12-01T05:48:14;98092.63;;;25.40;27.58
62789;BME280;48826;42.016;21.454;2022-12-01T05:50:40;98088.56;;;25.43;27.53
62789;BME280;48826;42.016;21.454;2022-12-01T05:53:06;98086.09;;;25.46;27.27
62789;BME280;48826;42.016;21.454;2022-12-01T05:55:32;98089.84;;;25.45;27.83
62789;BME280;48826;42.016;21.454;2022-12-01T05:57:59;98084.22;;;25.47;27.23
62789;BME280;48826;42.016;21.454;2022-12-01T06:00:24;98080.97;;;25.50;27.52
62789;BME280;48826;42.016;21.454;2022-12-01T06:02:50;98074.25;;;25.38;27.49
62789;BME280;48826;42.016;21.454;2022-12-01T06:05:15;98100.34;;;25.55;27.11
62789;BME280;48826;42.016;21.454;2022-12-01T06:07:41;98089.88;;;25.59;27.79
62789;BME280;48826;42.016;21.454;2022-12-01T06:10:08;98096.81;;;25.60;28.15
62789;BME280;48826;42.016;21.454;2022-12-01T06:12:34;98093.06;;;25.61;27.58
62789;BME280;48826;42.016;21.454;2022-12-01T06:15:00;98081.78;;;25.64;27.97
62789;BME280;48826;42.016;21.454;2022-12-01T06:17:25;98091.84;;;25.67;27.28
62789;BME280;48826;42.016;21.454;2022-12-01T06:19:51;98086.53;;;25.67;28.25
62789;BME280;48826;42.016;21.454;2022-12-01T06:22:16;98087.13;;;25.64;27.80
62789;BME280;48826;42.016;21.454;2022-12-01T06:24:42;98094.03;;;25.65;27.84
62789;BME280;48826;42.016;21.454;2022-12-01T06:27:07;98084.94;;;25.66;28.74
62789;BME280;48826;42.016;21.454;2022-12-01T06:29:33;98091.84;;;25.67;28.13
62789;BME280;48826;42.016;21.454;2022-12-01T06:31:58;98079.22;;;25.59;28.69
62789;BME280;48826;42.016;21.454;2022-12-01T06:34:24;98087.91;;;25.64;27.83
62789;BME280;48826;42.016;21.454;2022-12-01T06:36:49;98097.19;;;25.67;28.64
62789;BME280;48826;42.016;21.454;2022-12-01T06:39:15;98090.00;;;25.67;28.41
62789;BME280;48826;42.016;21.454;2022-12-01T06:41:41;98091.06;;;25.66;27.94
62789;BME280;48826;42.016;21.454;2022-12-01T06:44:08;98095.03;;;25.69;28.02
62789;BME280;48826;42.016;21.454;2022-12-01T06:46:33;98092.16;;;25.65;28.11
62789;BME280;48826;42.016;21.454;2022-12-01T06:48:59;98102.53;;;25.67;27.63
62789;BME280;48826;42.016;21.454;2022-12-01T06:51:24;98099.59;;;25.68;28.36
62789;BME280;48826;42.016;21.454;2022-12-01T06:53:54;98098.28;;;25.66;27.82
62789;BME280;48826;42.016;21.454;2022-12-01T06:56:21;98101.53;;;25.63;28.36
62789;BME280;48826;42.016;21.454;2022-12-01T06:58:50;98103.91;;;25.64;28.45
62789;BME280;48826;42.016;21.454;2022-12-01T07:01:15;98104.88;;;25.55;30.75
62789;BME280;48826;42.016;21.454;2022-12-01T07:03:41;98100.56;;;25.59;29.71
62789;BME280;48826;42.016;21.454;2022-12-01T07:06:07;98103.13;;;25.64;29.09
62789;BME280;48826;42.016;21.454;2022-12-01T07:08:33;98101.72;;;25.53;30.48
62789;BME280;48826;42.016;21.454;2022-12-01T07:11:05;98117.28;;;25.46;30.58
62789;BME280;48826;42.016;21.454;2022-12-01T07:13:32;98106.72;;;25.40;30.96
62789;BME280;48826;42.016;21.454;2022-12-01T07:15:57;98107.59;;;25.36;31.29
62789;BME280;48826;42.016;21.454;2022-12-01T07:18:23;98102.06;;;25.32;30.91
62789;BME280;48826;42.016;21.454;2022-12-01T07:20:49;98114.81;;;25.35;31.36
62789;BME280;48826;42.016;21.454;2022-12-01T07:23:14;98107.28;;;25.37;31.35
62789;BME280;48826;42.016;21.454;2022-12-01T07:25:40;98101.47;;;25.35;31.08
62789;BME280;48826;42.016;21.454;2022-12-01T07:28:06;98103.94;;;25.32;31.14
62789;BME280;48826;42.016;21.454;2022-12-01T07:30:31;98112.13;;;25.35;31.72
62789;BME280;48826;42.016;21.454;2022-12-01T07:32:58;98111.34;;;25.35;31.46
62789;BME280;48826;42.016;21.454;2022-12-01T07:35:23;98116.91;;;25.38;30.77
62789;BME280;48826;42.016;21.454;2022-12-01T07:37:58;98124.38;;;25.36;31.42
62789;BME280;48826;42.016;21.454;2022-12-01T07:40:23;98121.66;;;25.42;30.84
62789;BME280;48826;42.016;21.454;2022-12-01T07:42:49;98114.72;;;25.40;30.90
62789;BME280;48826;42.016;21.454;2022-12-01T07:45:14;98125.41;;;25.40;31.61
62789;BME280;48826;42.016;21.454;2022-12-01T07:47:40;98123.41;;;25.46;31.19
62789;BME280;48826;42.016;21.454;2022-12-01T07:50:06;98123.22;;;25.43;31.12
62789;BME280;48826;42.016;21.454;2022-12-01T07:52:31;98119.03;;;25.36;30.98
62789;BME280;48826;42.016;21.454;2022-12-01T07:54:57;98128.06;;;25.40;31.28
62789;BME280;48826;42.016;21.454;2022-12-01T07:57:22;98123.59;;;25.36;30.85
62789;BME280;48826;42.016;21.454;2022-12-01T07:59:48;98130.09;;;25.30;31.48
62789;BME280;48826;42.016;21.454;2022-12-01T08:02:14;98127.13;;;25.31;31.00
62789;BME280;48826;42.016;21.454;2022-12-01T08:04:40;98131.44;;;25.27;30.82
62789;BME280;48826;42.016;21.454;2022-12-01T08:07:06;98132.84;;;25.25;30.93
62789;BME280;48826;42.016;21.454;2022-12-01T08:09:32;98138.78;;;25.35;30.55
62789;BME280;48826;42.016;21.454;2022-12-01T08:11:57;98136.22;;;25.30;30.40
62789;BME280;48826;42.016;21.454;2022-12-01T08:14:23;98139.38;;;25.32;30.58
62789;BME280;48826;42.016;21.454;2022-12-01T08:16:48;98140.97;;;25.33;30.84
62789;BME280;48826;42.016;21.454;2022-12-01T08:19:14;98137.50;;;25.33;30.73
62789;BME280;48826;42.016;21.454;2022-12-01T08:21:39;98142.75;;;25.38;29.83
62789;BME280;48826;42.016;21.454;2022-12-01T08:24:05;98155.56;;;25.36;30.44
62789;BME280;48826;42.016;21.454;2022-12-01T08:26:31;98144.72;;;25.32;30.94
62789;BME280;48826;42.016;21.454;2022-12-01T08:28:56;98147.81;;;25.39;29.97
62789;BME280;48826;42.016;21.454;2022-12-01T08:31:24;98143.63;;;25.33;31.04
62789;BME280;48826;42.016;21.454;2022-12-01T08:33:51;98141.47;;;25.35;30.77
62789;BME280;48826;42.016;21.454;2022-12-01T08:36:18;98146.78;;;25.35;30.48
62789;BME280;48826;42.016;21.454;2022-12-01T08:38:47;98141.47;;;25.35;30.43
62789;BME280;48826;42.016;21.454;2022-12-01T08:41:13;98146.78;;;25.35;30.25
62789;BME280;48826;42.016;21.454;2022-12-01T08:43:40;98154.78;;;25.35;30.91
62789;BME280;48826;42.016;21.454;2022-12-01T08:46:11;98144.22;;;25.30;30.82
62789;BME280;48826;42.016;21.454;2022-12-01T08:48:38;98154.78;;;25.35;29.59
62789;BME280;48826;42.016;21.454;2022-12-01T08:53:35;98156.00;;;25.43;29.72
62789;BME280;48826;42.016;21.454;2022-12-01T08:56:07;98152.84;;;25.41;30.11
62789;BME280;48826;42.016;21.454;2022-12-01T08:58:33;98153.34;;;25.43;30.20
62789;BME280;48826;42.016;21.454;2022-12-01T09:01:09;98149.69;;;25.39;29.19
62789;BME280;48826;42.016;21.454;2022-12-01T09:03:37;98157.88;;;25.43;29.58
62789;BME280;48826;42.016;21.454;2022-12-01T09:06:07;98155.28;;;25.37;30.08
62789;BME280;48826;42.016;21.454;2022-12-01T09:08:34;98147.81;;;25.39;30.34
62789;BME280;48826;42.016;21.454;2022-12-01T09:11:02;98150.25;;;25.36;29.77
62789;BME280;48826;42.016;21.454;2022-12-01T09:13:29;98151.03;;;25.36;29.73
62789;BME280;48826;42.016;21.454;2022-12-01T09:15:59;98150.25;;;25.36;29.62
62789;BME280;48826;42.016;21.454;2022-12-01T09:18:26;98149.25;;;25.32;30.14
62789;BME280;48826;42.016;21.454;2022-12-01T09:20:52;98150.03;;;25.32;29.73
62789;BME280;48826;42.016;21.454;2022-12-01T09:23:18;98153.38;;;25.24;29.73
62789;BME280;48826;42.016;21.454;2022-12-01T09:25:44;98152.22;;;25.30;29.79
62789;BME280;48826;42.016;21.454;2022-12-01T09:28:09;98155.19;;;25.29;29.93
62789;BME280;48826;42.016;21.454;2022-12-01T09:30:34;98147.75;;;25.26;29.96
62789;BME280;48826;42.016;21.454;2022-12-01T09:33:00;98150.63;;;25.29;30.08
62789;BME280;48826;42.016;21.454;2022-12-01T09:35:26;98150.47;;;25.39;29.41
62789;BME280;48826;42.016;21.454;2022-12-01T09:37:51;98141.47;;;25.35;29.51
62789;BME280;48826;42.016;21.454;2022-12-01T09:40:17;98143.34;;;25.35;30.27
62789;BME280;48826;42.016;21.454;2022-12-01T09:42:44;98141.63;;;25.25;29.52
62789;BME280;48826;42.016;21.454;2022-12-01T09:45:33;98146.59;;;25.32;30.00
62789;BME280;48826;42.016;21.454;2022-12-01T09:48:02;98147.69;;;25.31;29.63
62789;BME280;48826;42.016;21.454;2022-12-01T09:50:30;98152.41;;;25.34;30.35
62789;BME280;48826;42.016;21.454;2022-12-01T09:55:25;98145.16;;;25.39;29.64
62789;BME280;48826;42.016;21.454;2022-12-01T09:57:55;98132.06;;;25.38;29.60
62789;BME280;48826;42.016;21.454;2022-12-01T10:00:23;98142.97;;;25.42;29.45
62789;BME280;48826;42.016;21.454;2022-12-01T10:02:58;98140.50;;;25.45;28.96
62789;BME280;48826;42.016;21.454;2022-12-01T10:05:47;98142.38;;;25.45;29.19
62789;BME280;48826;42.016;21.454;2022-12-01T10:08:16;98136.47;;;25.48;28.86
62789;BME280;48826;42.016;21.454;2022-12-01T10:10:46;98141.28;;;25.46;29.46
62789;BME280;48826;42.016;21.454;2022-12-01T10:13:22;98148.72;;;25.49;29.08
62789;BME280;48826;42.016;21.454;2022-12-01T10:16:08;98147.84;;;25.53;29.72
62789;BME280;48826;42.016;21.454;2022-12-01T10:18:58;98141.41;;;25.54;28.88
62789;BME280;48826;42.016;21.454;2022-12-01T10:21:54;98144.59;;;25.56;29.48
62789;BME280;48826;42.016;21.454;2022-12-01T10:30:07;98142.03;;;25.65;29.09
62789;BME280;48826;42.016;21.454;2022-12-01T10:32:53;98148.91;;;25.71;28.67
62789;BME280;48826;42.016;21.454;2022-12-01T10:35:28;98145.66;;;25.74;28.38
62789;BME280;48826;42.016;21.454;2022-12-01T10:37:58;98142.41;;;25.77;28.04
62789;BME280;48826;42.016;21.454;2022-12-01T10:40:26;98136.78;;;25.79;28.46
62789;BME280;48826;42.016;21.454;2022-12-01T10:42:53;98135.41;;;25.81;28.14
62789;BME280;48826;42.016;21.454;2022-12-01T10:45:24;98134.59;;;25.81;28.09
62789;BME280;48826;42.016;21.454;2022-12-01T10:48:23;98130.25;;;25.85;28.34
62789;BME280;48826;42.016;21.454;2022-12-01T10:56:11;98120.38;;;25.85;28.08
62789;BME280;48826;42.016;21.454;2022-12-01T10:58:52;98119.28;;;25.86;28.86
62789;BME280;48826;42.016;21.454;2022-12-01T11:01:27;98115.81;;;25.86;28.43
62789;BME280;48826;42.016;21.454;2022-12-01T11:04:06;98116.84;;;25.90;27.92
62789;BME280;48826;42.016;21.454;2022-12-01T11:06:33;98116.53;;;25.91;28.60
62789;BME280;48826;42.016;21.454;2022-12-01T11:09:18;98115.44;;;25.92;28.88
62789;BME280;48826;42.016;21.454;2022-12-01T11:11:44;98115.94;;;25.94;28.47
62789;BME280;48826;42.016;21.454;2022-12-01T11:14:27;98116.25;;;25.93;28.24
62789;BME280;48826;42.016;21.454;2022-12-01T11:16:56;98121.78;;;25.96;27.83
62789;BME280;48826;42.016;21.454;2022-12-01T11:19:38;98115.63;;;25.96;28.46
62789;BME280;48826;42.016;21.454;2022-12-01T11:22:28;98114.06;;;25.95;28.20
62789;BME280;48826;42.016;21.454;2022-12-01T11:27:32;98117.53;;;25.95;28.20
62789;BME280;48826;42.016;21.454;2022-12-01T11:30:04;98118.81;;;25.98;28.17
62789;BME280;48826;42.016;21.454;2022-12-01T11:32:37;98109.50;;;25.95;28.12
62789;BME280;48826;42.016;21.454;2022-12-01T11:35:23;98121.78;;;25.96;28.03
62789;BME280;48826;42.016;21.454;2022-12-01T11:37:55;98127.63;;;25.99;28.03
62789;BME280;48826;42.016;21.454;2022-12-01T11:40:24;98124.16;;;25.98;28.53
62789;BME280;48826;42.016;21.454;2022-12-01T11:42:53;98123.94;;;25.94;28.45
62789;BME280;48826;42.016;21.454;2022-12-01T11:50:42;98114.84;;;25.95;28.09
62789;BME280;48826;42.016;21.454;2022-12-01T11:53:28;98124.94;;;25.99;28.86
62789;BME280;48826;42.016;21.454;2022-12-01T11:56:21;98125.25;;;25.97;28.61
62789;BME280;48826;42.016;21.454;2022-12-01T11:58:50;98112.47;;;25.94;28.69
62789;BME280;48826;42.016;21.454;2022-12-01T12:07:01;98114.78;;;26.01;28.36
62789;BME280;48826;42.016;21.454;2022-12-01T12:17:52;98119.22;;;26.05;28.75
62789;BME280;48826;42.016;21.454;2022-12-01T12:23:35;98122.78;;;26.01;28.53
62789;BME280;48826;42.016;21.454;2022-12-01T12:26:23;98119.31;;;26.00;27.99
62789;BME280;48826;42.016;21.454;2022-12-01T12:50:58;98141.66;;;26.04;28.35
62789;BME280;48826;42.016;21.454;2022-12-01T12:53:33;98139.28;;;26.03;27.72
62789;BME280;48826;42.016;21.454;2022-12-01T12:56:05;98140.38;;;26.02;27.94
62789;BME280;48826;42.016;21.454;2022-12-01T12:58:38;98134.25;;;26.01;28.46
62789;BME280;48826;42.016;21.454;2022-12-01T13:01:11;98136.19;;;25.95;28.18
62789;BME280;48826;42.016;21.454;2022-12-01T13:03:55;98139.38;;;25.98;28.54
62789;BME280;48826;42.016;21.454;2022-12-01T13:06:42;98140.84;;;26.04;28.57
62789;BME280;48826;42.016;21.454;2022-12-01T13:09:13;98135.81;;;26.02;27.80
62789;BME280;48826;42.016;21.454;2022-12-01T13:11:45;98137.41;;;26.03;28.64
62789;BME280;48826;42.016;21.454;2022-12-01T13:14:28;98134.44;;;26.05;28.33
62789;BME280;48826;42.016;21.454;2022-12-01T13:17:05;98133.94;;;26.03;28.24
62789;BME280;48826;42.016;21.454;2022-12-01T13:19:34;98137.09;;;26.05;28.74
62789;BME280;48826;42.016;21.454;2022-12-01T13:22:03;98134.44;;;26.05;28.28
62789;BME280;48826;42.016;21.454;2022-12-01T13:24:31;98128.31;;;26.04;28.80
62789;BME280;48826;42.016;21.454;2022-12-01T13:27:01;98137.63;;;26.07;28.45
62789;BME280;48826;42.016;21.454;2022-12-01T13:29:32;98130.69;;;26.06;28.78
62789;BME280;48826;42.016;21.454;2022-12-01T13:31:58;98132.66;;;26.00;29.18
62789;BME280;48826;42.016;21.454;2022-12-01T13:36:55;98132.84;;;26.04;28.57
62789;BME280;48826;42.016;21.454;2022-12-01T13:39:27;98120.72;;;25.98;28.34
62789;BME280;48826;42.016;21.454;2022-12-01T13:42:03;98143.34;;;26.14;28.24
62789;BME280;48826;42.016;21.454;2022-12-01T13:44:57;98141.19;;;26.16;28.41
62789;BME280;48826;42.016;21.454;2022-12-01T13:47:46;98143.34;;;26.14;28.37
62789;BME280;48826;42.016;21.454;2022-12-01T13:53:33;98138.78;;;26.14;28.17
62789;BME280;48826;42.016;21.454;2022-12-01T13:58:50;98140.78;;;26.09;29.06
62789;BME280;48826;42.016;21.454;2022-12-01T14:06:41;98151.34;;;26.14;29.06
62789;BME280;48826;42.016;21.454;2022-12-01T14:09:30;98147.09;;;26.13;28.25
62789;BME280;48826;42.016;21.454;2022-12-01T14:12:03;98150.25;;;26.15;28.52
62789;BME280;48826;42.016;21.454;2022-12-01T14:14:37;98155.88;;;26.13;29.13
62789;BME280;48826;42.016;21.454;2022-12-01T14:17:04;98151.63;;;26.12;29.10
62789;BME280;48826;42.016;21.454;2022-12-01T14:19:44;98155.69;;;26.10;28.96
62789;BME280;48826;42.016;21.454;2022-12-01T14:22:30;98152.13;;;26.14;28.20
62789;BME280;48826;42.016;21.454;2022-12-01T14:24:57;98153.22;;;26.13;28.44
62789;BME280;48826;42.016;21.454;2022-12-01T14:41:26;98163.09;;;26.13;28.97
62789;BME280;48826;42.016;21.454;2022-12-01T14:43:59;98158.38;;;26.10;28.39
62789;BME280;48826;42.016;21.454;2022-12-01T14:46:55;98160.63;;;26.03;28.75
62789;BME280;48826;42.016;21.454;2022-12-01T14:49:22;98164.31;;;26.07;29.16
62789;BME280;48826;42.016;21.454;2022-12-01T14:51:53;98167.97;;;26.11;28.93
62789;BME280;48826;42.016;21.454;2022-12-01T14:54:31;98166.69;;;26.08;28.65
62789;BME280;48826;42.016;21.454;2022-12-01T14:57:01;98170.72;;;26.06;28.98
62789;BME280;48826;42.016;21.454;2022-12-01T14:59:27;98169.66;;;26.07;29.09
62789;BME280;48826;42.016;21.454;2022-12-01T15:02:02;98173.91;;;26.08;29.13
62789;BME280;48826;42.016;21.454;2022-12-01T15:05:07;98179.13;;;26.13;28.69
62789;BME280;48826;42.016;21.454;2022-12-01T15:07:39;98183.66;;;26.12;28.90
62789;BME280;48826;42.016;21.454;2022-12-01T15:10:24;98184.47;;;26.13;29.15